首页
METAR-TAF:

METAR-TAF

机场 :

普爾科沃機場

圣彼得堡, 俄罗斯

纬度: 59-58N, 经度: 030-18E, 海拔: 4米

当前天气观测

该预报发布于36分钟前的14:00 UTC
风速8节,风向南转南东
温度 5°C
湿度 87%
气压 993 hPa
能见度10公里或以上
散云层高于1500英尺
多云层高于3600英尺

METAR: ULLI 231400Z 16004MPS 9999 SCT015 BKN036 05/03 Q0993 R88/090060 NOSIG

时间: 17:36 (14:36 UTC)

预报

该预报发布于3小时和38分钟前的10:58 UTC
预报有效从23日的 12点(UTC)到 24日的 12点(UTC)
风速10节,风向,有时为19节阵风
能见度10公里或以上
多云层高于2000英尺
成为
从 23日的 16点(UTC)到 23日的 18点(UTC)
风速12节,风向南转南东,有时为23节阵风
短暂存在
从 23日的 16点(UTC)到 23日的 24点(UTC)
能見度: 3100
多云层高于1100英尺
多云层高于1500英尺, 积雨云.
小阵雨
成为
从 24日的 00点(UTC)到 24日的 02点(UTC)
风速8节,风向,有时为17节阵风
能見度: 5000
小雨
短暂存在
从 24日的 00点(UTC)到 24日的 06点(UTC)
能見度: 3100
多云层高于600英尺
多云层高于1500英尺, 积雨云.
小阵雨, 轻雾
短暂存在
从 24日的 06点(UTC)到 24日的 12点(UTC)
风速8节,风向东转东北,有时为17节阵风

TAF: ULLI 231058Z 2312/2412 19005G10MPS 9999 BKN020 BECMG 2316/2318 16006G12MPS TEMPO 2316/2324 3100 -SHRA BKN011 BKN015CB BECMG 2400/2402 10004G09MPS 5000 -RA TEMPO 2400/2406 3100 -SHRA BR BKN006 BKN015CB TEMPO 2406/2412 06004G09MPS

超过4000个机场的气象观测和天气预报(METAR&TAF报告)。

可查询的气象台以黄色和红色小点在地图上表示。

将鼠标移到小点上方,可查看气象台名称。

然后点击查看天气观测和预报。

如需切换地图:点击带黑十字的绿色按钮放大地图;点击带横线的绿色按钮缩小地图;或者点击绿色箭头查看邻近地区的地图。


METAR-TAF: